HISTORICAL SENSOR DATA

Sensor Data Report

DB LIVE
CURRENT TIME--:--:--
DEVICE NETWORK Gateway Status
13 ESP · realtime ~1s · history 60s
Weather WS-MOD-01
ONLINE
Actuator ACT-MOD-01
OFFLINE
Mainboard L3 MB-L3-01
ONLINE
Mainboard L5 MB-L5-01
ONLINE
Remote AC AC-REMOTE-01
ONLINE
PZEM L3-01 PWR-L3-01
OFFLINE
PZEM L3-02 PWR-L3-02
OFFLINE
PZEM L3-03 PWR-L3-03
OFFLINE
PZEM L3-04 PWR-L3-04
OFFLINE
PZEM L5-01 PWR-L5-01
ONLINE
PZEM L5-02 PWR-L5-02
OFFLINE
PZEM L5-03 PWR-L5-03
OFFLINE
PZEM L5-04 PWR-L5-04
OFFLINE
REPORT FILTER

Periode & Sensor

DATABASE HISTORY
RESET
QUICK RANGE Hari ini 7 hari 30 hari
PERIODE02 Sep 2026sampai 02 Sep 2026
TOTAL DATA40,278sensor readings
MINIMUM-0.50sesuai filter
AVERAGE56.78sesuai filter
MAXIMUM998.00sesuai filter
REPORT RESULT

Data Sensor

02/09/2026 — 02/09/2026 EXPORT CSV
NOTANGGALWAKTUDEVICECHANNELSENSORVALUEUNIT
12001 02/09/2026 14:54:38 MB-L5-01Mainboard Lantai 5 L5-ST-01 Surface Temperature 1 30.00 °C
12002 02/09/2026 14:54:38 MB-L3-01Mainboard Lantai 3 L3-SHT-02-RH SHT20 2 Humidity 48.30 %RH
12003 02/09/2026 14:54:38 MB-L3-01Mainboard Lantai 3 L3-BGT-01 Black Globe Temperature 1 29.70 °C
12004 02/09/2026 14:54:38 MB-L5-01Mainboard Lantai 5 L5-RAD-02 Radiation 2 2.00 W/m²
12005 02/09/2026 14:54:38 MB-L3-01Mainboard Lantai 3 L3-LUX-01 Illuminance / LUX 1 35.40 lux
12006 02/09/2026 14:54:38 MB-L3-01Mainboard Lantai 3 L3-RAD-02 Radiation 2 1.00 W/m²
12007 02/09/2026 14:54:38 MB-L3-01Mainboard Lantai 3 L3-LUX-05 Illuminance / LUX 5 57.30 lux
12008 02/09/2026 14:54:38 MB-L5-01Mainboard Lantai 5 L5-AI-06 Analog Input 6 3.05 V
12009 02/09/2026 14:54:38 MB-L3-01Mainboard Lantai 3 L3-LUX-03 Illuminance / LUX 3 138.90 lux
12010 02/09/2026 14:54:38 MB-L5-01Mainboard Lantai 5 L5-SHT-02-RH SHT20 2 Humidity 48.40 %RH
12011 02/09/2026 14:54:38 MB-L3-01Mainboard Lantai 3 L3-AI-04 Analog Input 4 3.12 V
12012 02/09/2026 14:54:38 MB-L5-01Mainboard Lantai 5 L5-LUX-04 Illuminance / LUX 4 291.90 lux
12013 02/09/2026 14:54:38 MB-L3-01Mainboard Lantai 3 L3-BGT-02 Black Globe Temperature 2 29.80 °C
12014 02/09/2026 14:54:38 MB-L3-01Mainboard Lantai 3 L3-RAD-01 Radiation 1 1.00 W/m²
12015 02/09/2026 14:54:38 MB-L5-01Mainboard Lantai 5 L5-AI-05 Analog Input 5 3.05 V
12016 02/09/2026 14:54:38 MB-L5-01Mainboard Lantai 5 L5-SHT-03-T SHT20 3 Temperature 32.20 °C
12017 02/09/2026 14:54:38 MB-L5-01Mainboard Lantai 5 L5-SHT-01-T SHT20 1 Temperature 32.40 °C
12018 02/09/2026 14:54:38 MB-L3-01Mainboard Lantai 3 L3-SHT-03-RH SHT20 3 Humidity 49.00 %RH
12019 02/09/2026 14:54:38 MB-L5-01Mainboard Lantai 5 L5-SHT-02-T SHT20 2 Temperature 32.20 °C
12020 02/09/2026 14:54:38 MB-L5-01Mainboard Lantai 5 L5-SHT-03-RH SHT20 3 Humidity 48.80 %RH
12021 02/09/2026 14:54:38 MB-L5-01Mainboard Lantai 5 L5-AI-04 Analog Input 4 3.05 V
12022 02/09/2026 14:54:38 MB-L3-01Mainboard Lantai 3 L3-ST-01 Surface Temperature 1 29.90 °C
12023 02/09/2026 14:54:36 MB-L3-01Mainboard Lantai 3 L3-AI-06 Analog Input 6 3.12 V
12024 02/09/2026 14:54:36 MB-L3-01Mainboard Lantai 3 L3-LUX-06 Illuminance / LUX 6 37.30 lux
12025 02/09/2026 14:54:36 MB-L3-01Mainboard Lantai 3 L3-AI-01 Analog Input 1 3.12 V
12026 02/09/2026 14:54:36 MB-L5-01Mainboard Lantai 5 L5-BGT-03 Black Globe Temperature 3 29.90 °C
12027 02/09/2026 14:54:36 MB-L3-01Mainboard Lantai 3 L3-HFT-01 Heat Flow Temperature 1 29.60 °C
12028 02/09/2026 14:54:36 MB-L5-01Mainboard Lantai 5 L5-LUX-03 Illuminance / LUX 3 202.40 lux
12029 02/09/2026 14:54:36 MB-L5-01Mainboard Lantai 5 L5-BGT-02 Black Globe Temperature 2 29.80 °C
12030 02/09/2026 14:54:36 MB-L5-01Mainboard Lantai 5 L5-BGT-01 Black Globe Temperature 1 29.80 °C
12031 02/09/2026 14:54:36 MB-L3-01Mainboard Lantai 3 L3-AI-02 Analog Input 2 3.12 V
12032 02/09/2026 14:54:36 MB-L3-01Mainboard Lantai 3 L3-LUX-04 Illuminance / LUX 4 96.50 lux
12033 02/09/2026 14:54:36 MB-L5-01Mainboard Lantai 5 L5-HFT-02 Heat Flow Temperature 2 30.20 °C
12034 02/09/2026 14:54:36 MB-L5-01Mainboard Lantai 5 L5-SHT-01-RH SHT20 1 Humidity 48.50 %RH
12035 02/09/2026 14:54:36 MB-L3-01Mainboard Lantai 3 L3-HFT-02 Heat Flow Temperature 2 29.10 °C
12036 02/09/2026 14:54:36 MB-L3-01Mainboard Lantai 3 L3-SHT-01-T SHT20 1 Temperature 32.20 °C
12037 02/09/2026 14:54:36 MB-L5-01Mainboard Lantai 5 L5-HFT-01 Heat Flow Temperature 1 30.30 °C
12038 02/09/2026 14:54:36 MB-L5-01Mainboard Lantai 5 L5-LUX-01 Illuminance / LUX 1 253.70 lux
12039 02/09/2026 14:54:36 MB-L5-01Mainboard Lantai 5 L5-LUX-06 Illuminance / LUX 6 294.80 lux
12040 02/09/2026 14:54:36 MB-L5-01Mainboard Lantai 5 L5-ST-02 Surface Temperature 2 30.50 °C
12041 02/09/2026 14:54:36 MB-L3-01Mainboard Lantai 3 L3-LUX-02 Illuminance / LUX 2 40.50 lux
12042 02/09/2026 14:54:36 MB-L3-01Mainboard Lantai 3 L3-SHT-01-RH SHT20 1 Humidity 48.40 %RH
12043 02/09/2026 14:54:36 MB-L3-01Mainboard Lantai 3 L3-AI-03 Analog Input 3 3.12 V
12044 02/09/2026 14:54:36 MB-L5-01Mainboard Lantai 5 L5-LUX-02 Illuminance / LUX 2 151.60 lux
12045 02/09/2026 14:54:36 MB-L5-01Mainboard Lantai 5 L5-ST-01 Surface Temperature 1 30.10 °C
12046 02/09/2026 14:54:36 MB-L3-01Mainboard Lantai 3 L3-SHT-02-RH SHT20 2 Humidity 48.30 %RH
12047 02/09/2026 14:54:36 MB-L3-01Mainboard Lantai 3 L3-BGT-01 Black Globe Temperature 1 29.80 °C
12048 02/09/2026 14:54:36 MB-L5-01Mainboard Lantai 5 L5-RAD-02 Radiation 2 2.00 W/m²
12049 02/09/2026 14:54:36 MB-L3-01Mainboard Lantai 3 L3-LUX-01 Illuminance / LUX 1 32.90 lux
12050 02/09/2026 14:54:36 MB-L3-01Mainboard Lantai 3 L3-RAD-02 Radiation 2 2.00 W/m²
12051 02/09/2026 14:54:36 MB-L3-01Mainboard Lantai 3 L3-LUX-05 Illuminance / LUX 5 55.80 lux
12052 02/09/2026 14:54:36 MB-L5-01Mainboard Lantai 5 L5-AI-06 Analog Input 6 3.05 V
12053 02/09/2026 14:54:36 MB-L3-01Mainboard Lantai 3 L3-LUX-03 Illuminance / LUX 3 148.70 lux
12054 02/09/2026 14:54:36 MB-L5-01Mainboard Lantai 5 L5-SHT-02-RH SHT20 2 Humidity 48.40 %RH
12055 02/09/2026 14:54:36 MB-L3-01Mainboard Lantai 3 L3-AI-04 Analog Input 4 3.12 V
12056 02/09/2026 14:54:36 MB-L5-01Mainboard Lantai 5 L5-LUX-04 Illuminance / LUX 4 291.90 lux
12057 02/09/2026 14:54:36 MB-L3-01Mainboard Lantai 3 L3-BGT-02 Black Globe Temperature 2 29.80 °C
12058 02/09/2026 14:54:36 MB-L3-01Mainboard Lantai 3 L3-RAD-01 Radiation 1 2.00 W/m²
12059 02/09/2026 14:54:36 MB-L5-01Mainboard Lantai 5 L5-AI-05 Analog Input 5 3.05 V
12060 02/09/2026 14:54:36 MB-L5-01Mainboard Lantai 5 L5-SHT-03-T SHT20 3 Temperature 32.20 °C
12061 02/09/2026 14:54:36 MB-L5-01Mainboard Lantai 5 L5-SHT-01-T SHT20 1 Temperature 32.40 °C
12062 02/09/2026 14:54:36 MB-L3-01Mainboard Lantai 3 L3-SHT-03-RH SHT20 3 Humidity 49.00 %RH
12063 02/09/2026 14:54:36 MB-L5-01Mainboard Lantai 5 L5-SHT-02-T SHT20 2 Temperature 32.20 °C
12064 02/09/2026 14:54:36 MB-L5-01Mainboard Lantai 5 L5-SHT-03-RH SHT20 3 Humidity 48.90 %RH
12065 02/09/2026 14:54:36 MB-L5-01Mainboard Lantai 5 L5-AI-04 Analog Input 4 3.05 V
12066 02/09/2026 14:54:36 MB-L3-01Mainboard Lantai 3 L3-ST-01 Surface Temperature 1 29.90 °C
12067 02/09/2026 14:54:36 MB-L3-01Mainboard Lantai 3 L3-AI-05 Analog Input 5 3.12 V
12068 02/09/2026 14:54:36 MB-L3-01Mainboard Lantai 3 L3-SHT-03-T SHT20 3 Temperature 31.80 °C
12069 02/09/2026 14:54:36 MB-L5-01Mainboard Lantai 5 L5-RAD-01 Radiation 1 2.00 W/m²
12070 02/09/2026 14:54:36 MB-L5-01Mainboard Lantai 5 L5-AI-03 Analog Input 3 3.05 V
12071 02/09/2026 14:54:36 MB-L3-01Mainboard Lantai 3 L3-SHT-02-T SHT20 2 Temperature 32.00 °C
12072 02/09/2026 14:54:36 MB-L5-01Mainboard Lantai 5 L5-AI-02 Analog Input 2 3.05 V
12073 02/09/2026 14:54:36 MB-L3-01Mainboard Lantai 3 L3-BGT-03 Black Globe Temperature 3 29.30 °C
12074 02/09/2026 14:54:36 MB-L3-01Mainboard Lantai 3 L3-ST-02 Surface Temperature 2 30.10 °C
12075 02/09/2026 14:54:36 MB-L5-01Mainboard Lantai 5 L5-AI-01 Analog Input 1 3.05 V
12076 02/09/2026 14:54:36 MB-L5-01Mainboard Lantai 5 L5-LUX-05 Illuminance / LUX 5 549.20 lux
12077 02/09/2026 14:54:35 MB-L5-01Mainboard Lantai 5 L5-BGT-01 Black Globe Temperature 1 29.90 °C
12078 02/09/2026 14:54:35 MB-L5-01Mainboard Lantai 5 L5-HFT-02 Heat Flow Temperature 2 30.30 °C
12079 02/09/2026 14:54:35 MB-L5-01Mainboard Lantai 5 L5-SHT-01-RH SHT20 1 Humidity 48.40 %RH
12080 02/09/2026 14:54:35 MB-L5-01Mainboard Lantai 5 L5-HFT-01 Heat Flow Temperature 1 30.30 °C
12081 02/09/2026 14:54:35 MB-L5-01Mainboard Lantai 5 L5-LUX-01 Illuminance / LUX 1 253.70 lux
12082 02/09/2026 14:54:35 MB-L5-01Mainboard Lantai 5 L5-LUX-06 Illuminance / LUX 6 263.40 lux
12083 02/09/2026 14:54:35 MB-L5-01Mainboard Lantai 5 L5-ST-02 Surface Temperature 2 30.50 °C
12084 02/09/2026 14:54:35 MB-L5-01Mainboard Lantai 5 L5-LUX-02 Illuminance / LUX 2 154.00 lux
12085 02/09/2026 14:54:35 MB-L5-01Mainboard Lantai 5 L5-ST-01 Surface Temperature 1 30.20 °C
12086 02/09/2026 14:54:35 MB-L5-01Mainboard Lantai 5 L5-RAD-02 Radiation 2 2.00 W/m²
12087 02/09/2026 14:54:35 MB-L5-01Mainboard Lantai 5 L5-AI-06 Analog Input 6 3.05 V
12088 02/09/2026 14:54:35 MB-L5-01Mainboard Lantai 5 L5-SHT-02-RH SHT20 2 Humidity 48.30 %RH
12089 02/09/2026 14:54:35 MB-L5-01Mainboard Lantai 5 L5-LUX-04 Illuminance / LUX 4 252.70 lux
12090 02/09/2026 14:54:35 MB-L5-01Mainboard Lantai 5 L5-AI-05 Analog Input 5 3.05 V
12091 02/09/2026 14:54:35 MB-L5-01Mainboard Lantai 5 L5-SHT-03-T SHT20 3 Temperature 32.10 °C
12092 02/09/2026 14:54:35 MB-L5-01Mainboard Lantai 5 L5-SHT-01-T SHT20 1 Temperature 32.30 °C
12093 02/09/2026 14:54:35 MB-L5-01Mainboard Lantai 5 L5-SHT-02-T SHT20 2 Temperature 32.20 °C
12094 02/09/2026 14:54:35 MB-L5-01Mainboard Lantai 5 L5-SHT-03-RH SHT20 3 Humidity 49.00 %RH
12095 02/09/2026 14:54:35 MB-L5-01Mainboard Lantai 5 L5-AI-04 Analog Input 4 3.05 V
12096 02/09/2026 14:54:35 MB-L5-01Mainboard Lantai 5 L5-RAD-01 Radiation 1 2.00 W/m²
12097 02/09/2026 14:54:35 MB-L5-01Mainboard Lantai 5 L5-AI-03 Analog Input 3 3.05 V
12098 02/09/2026 14:54:35 MB-L5-01Mainboard Lantai 5 L5-AI-02 Analog Input 2 3.05 V
12099 02/09/2026 14:54:35 MB-L5-01Mainboard Lantai 5 L5-AI-01 Analog Input 1 3.05 V
12100 02/09/2026 14:54:35 MB-L5-01Mainboard Lantai 5 L5-LUX-05 Illuminance / LUX 5 461.20 lux
Menampilkan maksimal 100 data per halaman